Sarah Desgagnes — XJAB — position and weather

sailwx.info

Track history (hours):
 
Tides and Currents Weather Stations Pressure Air Temp Water Temp Dewpoint Dewpoint Depression Visibility Wind Speed Wind Dir Waves Ship Positions

Sarah Desgagnes

Last reported at 2015-May-18 16:23 UTC. Time now 2015-May-28 22:15 UTC.
Position N 46°38' W 071°56'.
Warning: this ship's position is 10 days out of date.

Length 148 m; draft 9.5 m.

Type: Tanker. MMSI: 316012308.

Date/timePositionNaut miles runAvg speedWind from/ knotsBaromVisibWave heightAir tempDewpointWater temp
2015-May-18 16:23N 46°38' W 071°56'1316.0
2015-May-18 15:33N 46°31' W 072°12'1414.4
2015-May-18 14:34N 46°22' W 072°29'1312.9
2015-May-18 13:33N 46°15' W 072°44'1514.5
2015-May-18 12:32N 46°05' W 073°00'  
2015-May-16 04:09N 46°12' W 072°53'711.5
2015-May-16 03:34N 46°15' W 072°44'10 9.9
2015-May-16 02:33N 46°20' W 072°32'1110.7
2015-May-16 01:33N 46°26' W 072°19'1310.2
2015-May-16 00:14N 46°34' W 072°04'812.0
2015-May-15 23:33N 46°39' W 071°54'  
Track history (hours):
 
Tides and Currents Weather Stations Pressure Air Temp Water Temp Dewpoint Dewpoint Depression Visibility Wind Speed Wind Dir Waves Ship Positions

Sarah Desgagnes

Last reported at 2015-May-18 16:23 UTC. Time now 2015-May-28 22:15 UTC.
Position N 46°38' W 071°56'.
Warning: this ship's position is 10 days out of date.

Length 148 m; draft 9.5 m.

Type: Tanker. MMSI: 316012308.

Date/timePositionNaut miles runAvg speedWind from/ knotsBaromVisibWave heightAir tempDewpointWater temp
2015-May-18 16:23N 46°38' W 071°56'1316.0
2015-May-18 15:33N 46°31' W 072°12'1414.4
2015-May-18 14:34N 46°22' W 072°29'1312.9
2015-May-18 13:33N 46°15' W 072°44'1514.5
2015-May-18 12:32N 46°05' W 073°00'  
2015-May-16 04:09N 46°12' W 072°53'711.5
2015-May-16 03:34N 46°15' W 072°44'10 9.9
2015-May-16 02:33N 46°20' W 072°32'1110.7
2015-May-16 01:33N 46°26' W 072°19'1310.2
2015-May-16 00:14N 46°34' W 072°04'812.0
2015-May-15 23:33N 46°39' W 071°54'  

Dump ship's entire track history